Impacts TAF Board
For situational awareness. Not to be used for flight planning purposes.
IDs:

KLAX - Los Angeles Intl, CA, US

Issued at 0312 UTC 20 Mar 2019
Updated at 0330 UTC 20 Mar 2019
Potential Impact None Slight Moderate High
Time0253Z 20/04Z 20/05Z 20/06Z 20/07Z 20/08Z 20/09Z 20/10Z 20/11Z 20/12Z 20/13Z 20/14Z 20/15Z 20/16Z>>
Type OBS PRVL PRVL PRVL PRVL PRVL PRVL PRVL PRVL PRVL PRVL PRVL PRVL PRVL
VIS 10 >6 >6 >6 >6 >6 >6 >6 >6 >6 >6 >6 >6 >6
CIG 19 15 25 25 25 15 15 15 15 15 15 15 15 15
Cover OVC BKN OVC OVC OVC OVC OVC OVC OVC OVC OVC OVC OVC OVC
FltCat MVFR MVFR MVFR MVFR MVFR MVFR MVFR MVFR MVFR MVFR MVFR MVFR MVFR MVFR
WX -- -- VCSH VCSH VCSH -SHRA -SHRA -SHRA -SHRA -SHRA -SHRA -SHRA -SHRA -SHRA
WDir 180 170 120 120 120 130 130 130 130 130 130 130 130 130
WSpd 10 12 7 7 7 7 7 7 7 7 7 7 7 7
WGst 14 -- -- -- -- -- -- -- -- -- -- -- -- --
Raw TAF
KLAX 200312Z 2003/2106 17012KT P6SM BKN015 BKN150
  FM200500 12007KT P6SM VCSH BKN025 OVC060
  FM200800 13007KT P6SM -SHRA BKN015 OVC035
  FM201800 VRB03KT P6SM -SHRA BKN025 OVC040
  FM202000 23010KT P6SM VCSH SCT025 BKN050
  FM202300 27015KT P6SM FEW035 BKN060
  FM210400 27010KT P6SM BKN060


Raw METAR
KLAX 200253Z 18010G14KT 10SM OVC019 16/11 A2998 RMK AO2 PRESRR SLP153 T01560111 53015 $
KLAX 200153Z 11008KT 10SM BKN020 OVC150 16/11 A2994 RMK AO2 SLP139 T01560111 $
KLAX 200053Z 14009KT 10SM FEW021 SCT100 BKN150 16/11 A2993 RMK AO2 SLP133 T01560106 $
KLAX 200036Z 17007KT 10SM FEW023 BKN150 16/11 A2994 RMK AO2 T01610111 $

METAR Board
Radar Display
Forecast Discussion
For situational awareness. Not to be used for flight planning purposes.